createdAt,value
2023-02-05T00:03:58.439Z,0.39
2023-02-05T00:08:57.562Z,0.34
2023-02-05T00:13:56.657Z,0.44
2023-02-05T00:18:58.239Z,0.39
2023-02-05T00:23:57.070Z,0.35
2023-02-05T00:28:55.813Z,0.43
2023-02-05T00:33:56.051Z,0.37
2023-02-05T00:38:55.151Z,0.47
2023-02-05T00:43:53.914Z,0.53
2023-02-05T00:48:52.645Z,0.31
2023-02-05T00:53:52.960Z,0.48
2023-02-05T00:58:51.770Z,0.51
2023-02-05T01:03:50.657Z,0.26
2023-02-05T01:08:49.589Z,0.37
2023-02-05T01:13:49.808Z,0.33
2023-02-05T01:18:48.634Z,0.03
2023-02-05T01:23:47.417Z,0.18
2023-02-05T01:28:47.195Z,0.03
2023-02-05T01:33:47.519Z,0.26
2023-02-05T01:38:46.360Z,0.45
2023-02-05T01:43:45.170Z,0.08
2023-02-05T01:48:47.910Z,0.10
2023-02-05T01:53:49.765Z,0.05
2023-02-05T01:58:53.629Z,-0.01
2023-02-05T02:03:53.098Z,-0.08
2023-02-05T02:08:53.866Z,-0.11
2023-02-05T02:13:56.352Z,-0.04
2023-02-05T02:18:55.913Z,-0.17
2023-02-05T02:24:13.930Z,-0.22
2023-02-05T02:29:19.676Z,-0.20
2023-02-05T02:34:22.236Z,-0.26
2023-02-05T02:39:26.941Z,-0.45
2023-02-05T02:44:34.792Z,-0.47
2023-02-05T02:49:39.370Z,-0.44
2023-02-05T02:54:42.472Z,-0.24
2023-02-05T02:59:47.293Z,-0.41
2023-02-05T03:04:53.206Z,-0.39
2023-02-05T03:10:00.450Z,-0.59
2023-02-05T03:15:01.266Z,-0.62
2023-02-05T03:20:05.168Z,-0.49
2023-02-05T03:25:06.438Z,-0.57
2023-02-05T03:30:10.293Z,-0.79
2023-02-05T03:35:22.266Z,-0.79
2023-02-05T03:40:26.505Z,-0.60
2023-02-05T03:45:41.004Z,-0.42
2023-02-05T03:50:45.169Z,-0.56
2023-02-05T03:55:49.264Z,-0.44
2023-02-05T04:00:50.369Z,-0.39
2023-02-05T04:05:50.095Z,-0.26
2023-02-05T04:10:50.912Z,-0.28
2023-02-05T04:15:52.274Z,-0.19
2023-02-05T04:20:51.250Z,-0.31
2023-02-05T04:25:55.290Z,-0.36
2023-02-05T04:31:03.147Z,-0.36
2023-02-05T04:36:05.743Z,-0.37
2023-02-05T04:41:05.030Z,-0.50
2023-02-05T04:46:08.836Z,-0.50
2023-02-05T04:51:08.952Z,-0.49
2023-02-05T04:56:09.256Z,-0.46
2023-02-05T05:01:15.682Z,-0.48
2023-02-05T05:06:15.522Z,-0.41
2023-02-05T05:11:16.098Z,-0.21
2023-02-05T05:16:16.697Z,-0.28
2023-02-05T05:21:15.592Z,-0.49
2023-02-05T05:26:14.772Z,-0.33
2023-02-05T05:31:19.799Z,-0.11
2023-02-05T05:36:19.217Z,-0.15
2023-02-05T05:41:39.264Z,-0.14
2023-02-05T05:46:41.252Z,-0.30
2023-02-05T05:51:40.206Z,-0.05
2023-02-05T05:56:39.181Z,-0.11
2023-02-05T06:01:39.690Z,-0.14
2023-02-05T06:06:38.468Z,-0.09
2023-02-05T06:11:37.246Z,-0.12
2023-02-05T06:16:36.154Z,0.02
2023-02-05T06:21:36.541Z,-0.03
2023-02-05T06:26:35.331Z,-0.15
2023-02-05T06:31:34.374Z,-0.18
2023-02-05T06:36:33.299Z,-0.07
2023-02-05T06:41:33.472Z,-0.25
2023-02-05T06:46:32.829Z,-0.06
2023-02-05T06:51:31.839Z,-0.30
2023-02-05T06:56:30.711Z,-0.20
2023-02-05T07:01:31.196Z,-0.22
2023-02-05T07:06:30.308Z,-0.14
2023-02-05T07:11:29.220Z,-0.05
2023-02-05T07:16:28.262Z,0.07
2023-02-05T07:21:28.633Z,0.06
2023-02-05T07:26:27.517Z,0.01
2023-02-05T07:31:27.086Z,-0.04
2023-02-05T07:36:26.079Z,-0.02
2023-02-05T07:41:29.649Z,0.04
2023-02-05T07:46:28.577Z,-0.28
2023-02-05T07:51:27.770Z,-0.04
2023-02-05T07:56:28.907Z,0.15
2023-02-05T08:01:29.079Z,0.03
2023-02-05T08:06:30.822Z,0.04
2023-02-05T08:11:32.605Z,0.14
2023-02-05T08:16:37.025Z,0.09
2023-02-05T08:21:36.506Z,0.23
2023-02-05T08:26:36.821Z,0.48
2023-02-05T08:31:35.995Z,0.45
2023-02-05T08:36:35.009Z,0.52
2023-02-05T08:41:33.952Z,0.43
2023-02-05T08:46:48.898Z,0.41
2023-02-05T08:51:49.482Z,0.34
2023-02-05T08:56:51.318Z,0.37
2023-02-05T09:01:52.507Z,0.90
2023-02-05T09:06:51.423Z,1.37
2023-02-05T09:11:50.661Z,1.54
2023-02-05T09:16:49.763Z,1.63
2023-02-05T09:21:50.049Z,1.93
2023-02-05T09:26:49.592Z,2.02
2023-02-05T09:31:49.109Z,2.55
2023-02-05T09:36:49.738Z,2.79
2023-02-05T09:41:57.103Z,3.13
2023-02-05T09:47:05.802Z,3.26
2023-02-05T09:52:13.621Z,3.43
2023-02-05T09:57:17.643Z,3.20
2023-02-05T10:02:26.444Z,3.43
2023-02-05T10:07:38.610Z,3.18
2023-02-05T10:12:49.591Z,2.84
2023-02-05T10:18:01.450Z,3.24
2023-02-05T10:23:15.351Z,3.91
2023-02-05T10:28:25.678Z,3.68
2023-02-05T10:33:42.348Z,3.42
2023-02-05T10:38:45.258Z,3.26
2023-02-05T10:43:50.586Z,3.98
2023-02-05T10:48:55.764Z,4.51
2023-02-05T10:53:56.319Z,4.27
2023-02-05T10:58:56.866Z,4.51
2023-02-05T11:04:01.728Z,5.27
2023-02-05T11:09:30.252Z,5.34
2023-02-05T11:14:42.145Z,5.31
2023-02-05T11:19:41.443Z,4.90
2023-02-05T11:24:42.771Z,4.65
2023-02-05T11:29:42.104Z,5.16
2023-02-05T11:34:41.132Z,5.25
2023-02-05T11:39:42.496Z,5.08
2023-02-05T11:44:51.397Z,4.84
2023-02-05T11:49:52.523Z,4.30
2023-02-05T11:54:53.198Z,4.45
2023-02-05T11:59:57.590Z,4.43
2023-02-05T12:05:02.305Z,4.27
2023-02-05T12:10:03.227Z,4.48
2023-02-05T12:15:11.906Z,4.42
2023-02-05T12:20:22.783Z,4.16
2023-02-05T12:25:30.004Z,4.04
2023-02-05T12:31:00.313Z,3.57
2023-02-05T12:36:12.608Z,3.49
2023-02-05T12:41:24.819Z,3.44
2023-02-05T12:46:45.278Z,3.73
2023-02-05T12:51:54.235Z,3.65
2023-02-05T12:57:02.747Z,3.61
2023-02-05T13:02:12.083Z,3.65
2023-02-05T13:07:20.046Z,3.31
2023-02-05T13:12:28.348Z,2.82
2023-02-05T13:17:32.888Z,2.60
2023-02-05T13:23:08.547Z,2.77
2023-02-05T13:28:42.731Z,2.67
2023-02-05T13:33:41.946Z,3.00
2023-02-05T13:38:57.571Z,2.65
2023-02-05T13:44:17.656Z,2.32
2023-02-05T13:49:44.137Z,2.51
2023-02-05T13:55:08.748Z,2.46
2023-02-05T14:00:15.573Z,2.66
2023-02-05T14:05:16.198Z,2.41
2023-02-05T14:10:28.300Z,2.56
2023-02-05T14:15:41.068Z,2.40
2023-02-05T14:20:44.738Z,2.52
2023-02-05T14:26:11.927Z,2.06
2023-02-05T14:31:59.095Z,2.14
2023-02-05T14:36:58.508Z,1.84
2023-02-05T14:41:59.668Z,1.88
2023-02-05T14:47:20.714Z,1.82
2023-02-05T14:52:36.722Z,1.59
2023-02-05T14:57:43.841Z,1.78
2023-02-05T15:03:21.756Z,2.11
2023-02-05T15:08:30.608Z,2.10
2023-02-05T15:13:29.783Z,1.76
2023-02-05T15:18:31.495Z,1.85
2023-02-05T15:23:38.795Z,1.61
2023-02-05T15:28:42.218Z,1.81
2023-02-05T15:33:50.162Z,1.63
2023-02-05T15:38:58.100Z,1.48
2023-02-05T15:44:03.162Z,1.39
2023-02-05T15:49:09.967Z,1.30
2023-02-05T15:54:21.985Z,1.12
2023-02-05T15:59:27.231Z,1.09
2023-02-05T16:04:31.460Z,1.18
2023-02-05T16:09:34.902Z,1.46
2023-02-05T16:14:38.618Z,1.58
2023-02-05T16:19:54.436Z,1.46
2023-02-05T16:25:21.941Z,1.72
2023-02-05T16:30:32.060Z,1.73
2023-02-05T16:35:52.113Z,2.02
2023-02-05T16:40:57.359Z,1.84
2023-02-05T16:46:26.434Z,1.63
2023-02-05T16:51:48.362Z,1.40
2023-02-05T16:56:56.087Z,1.45
2023-02-05T17:01:55.643Z,1.18
2023-02-05T17:06:58.306Z,1.25
2023-02-05T17:12:43.081Z,1.20
2023-02-05T17:17:50.673Z,1.20
2023-02-05T17:23:14.945Z,1.35
2023-02-05T17:28:21.706Z,1.33
2023-02-05T17:33:23.165Z,1.34
2023-02-05T17:38:24.524Z,1.36
2023-02-05T17:43:25.687Z,1.57
2023-02-05T17:48:25.826Z,1.52
2023-02-05T17:53:33.668Z,1.57
2023-02-05T17:58:39.743Z,1.33
2023-02-05T18:03:39.951Z,1.30
2023-02-05T18:08:40.394Z,1.18
2023-02-05T18:13:48.860Z,1.37
2023-02-05T18:18:52.194Z,1.45
2023-02-05T18:23:53.739Z,1.38
2023-02-05T18:28:55.102Z,1.32
2023-02-05T18:33:54.613Z,1.33
2023-02-05T18:38:53.998Z,1.35
2023-02-05T18:44:00.620Z,1.50
2023-02-05T18:49:16.271Z,1.51
2023-02-05T18:54:45.816Z,1.46
2023-02-05T18:59:48.542Z,1.41
2023-02-05T19:04:52.272Z,1.40
2023-02-05T19:09:51.906Z,1.35
2023-02-05T19:14:57.110Z,1.26
2023-02-05T19:20:00.185Z,1.19
2023-02-05T19:25:01.360Z,1.23
2023-02-05T19:30:04.928Z,1.26
2023-02-05T19:35:06.237Z,1.21
2023-02-05T19:40:06.761Z,1.13
2023-02-05T19:45:08.020Z,0.85
2023-02-05T19:50:07.211Z,0.83
2023-02-05T19:55:06.586Z,0.87
2023-02-05T20:00:08.083Z,0.88
2023-02-05T20:05:11.210Z,0.86
2023-02-05T20:10:10.404Z,0.77
2023-02-05T20:15:11.886Z,0.75
2023-02-05T20:20:24.892Z,0.76
2023-02-05T20:25:27.055Z,0.78
2023-02-05T20:30:45.151Z,0.61
2023-02-05T20:35:43.972Z,0.61
2023-02-05T20:40:42.796Z,0.40
2023-02-05T20:45:43.008Z,0.14
2023-02-05T20:50:41.798Z,0.10
2023-02-05T20:55:42.671Z,0.16
2023-02-05T21:00:42.980Z,0.20
2023-02-05T21:05:41.943Z,0.26
2023-02-05T21:10:40.889Z,0.21
2023-02-05T21:15:39.964Z,0.26
2023-02-05T21:20:40.274Z,0.21
2023-02-05T21:25:39.020Z,0.22
2023-02-05T21:30:38.354Z,0.16
2023-02-05T21:35:40.016Z,-0.10
2023-02-05T21:40:39.304Z,-0.24
2023-02-05T21:45:38.081Z,-0.41
2023-02-05T21:50:40.855Z,-0.36
2023-02-05T21:55:39.819Z,-0.39
2023-02-05T22:00:38.621Z,-0.60
2023-02-05T22:05:37.463Z,-0.60
2023-02-05T22:10:37.589Z,-0.46
2023-02-05T22:15:36.550Z,-0.49
2023-02-05T22:20:35.651Z,-1.04
2023-02-05T22:25:34.567Z,-0.94
2023-02-05T22:30:35.344Z,-0.97
2023-02-05T22:35:34.978Z,-0.95
2023-02-05T22:40:34.487Z,-0.99
2023-02-05T22:45:34.984Z,-1.03
2023-02-05T22:50:37.946Z,-1.15
2023-02-05T22:55:37.538Z,-1.35
2023-02-05T23:00:37.792Z,-1.35
2023-02-05T23:05:36.999Z,-1.34
2023-02-05T23:10:35.918Z,-1.53
2023-02-05T23:15:37.975Z,-1.81
2023-02-05T23:20:36.703Z,-2.07
2023-02-05T23:25:37.590Z,-1.71
2023-02-05T23:30:38.137Z,-1.58
2023-02-05T23:35:37.355Z,-1.49
2023-02-05T23:40:36.206Z,-1.39
2023-02-05T23:45:35.200Z,-1.43
2023-02-05T23:50:36.175Z,-1.47
2023-02-05T23:55:39.844Z,-1.52
